Time;durP1;ratioP1;P1;durP2;ratioP2;P2;SDS_P1;SDS_P2;PMS_P1;PMS_P2;Temp;Humidity;BMP_temperature;BMP_pressure;BME280_temperature;BME280_humidity;BME280_pressure;Samples;Min_cycle;Max_cycle;Signal;HPM_P1;HPM_P2
2022/01/22 00:01:54;;;;;;;0.20;0.20;;;;;;;;;;5059084;28;20067;-84
2022/01/22 00:04:20;;;;;;;0.10;0.10;;;;;;;;;;5062585;28;20028;-83
2022/01/22 00:06:46;;;;;;;0.33;0.33;;;;;;;;;;5064230;28;20033;-84
2022/01/22 00:09:12;;;;;;;0.10;0.10;;;;;;;;;;5066824;28;20196;-83
2022/01/22 00:11:50;;;;;;;0.10;0.10;;;;;;;;;;5065397;28;20289;-84
2022/01/22 00:14:24;;;;;;;0.22;0.22;;;;;;;;;;5064159;28;20029;-84
2022/01/22 00:16:52;;;;;;;0.10;0.10;;;;;;;;;;5064806;28;20028;-83
2022/01/22 00:19:18;;;;;;;0.20;0.20;;;;;;;;;;5064096;28;20036;-84
2022/01/22 00:21:44;;;;;;;0.37;0.37;;;;;;;;;;5064223;28;20464;-84
2022/01/22 00:24:12;;;;;;;0.50;0.50;;;;;;;;;;5068586;28;20113;-83
2022/01/22 00:26:38;;;;;;;0.52;0.52;;;;;;;;;;5067046;28;20842;-84
2022/01/22 00:29:04;;;;;;;0.10;0.10;;;;;;;;;;5062423;28;20028;-84
2022/01/22 00:31:31;;;;;;;10.93;1.55;;;;;;;;;;5062804;28;20516;-84
2022/01/22 00:33:57;;;;;;;0.35;0.35;;;;;;;;;;5062885;28;20506;-84
2022/01/22 00:36:23;;;;;;;7.03;0.93;;;;;;;;;;5058448;28;20507;-84
2022/01/22 00:38:49;;;;;;;0.87;0.83;;;;;;;;;;5064439;28;20028;-84
2022/01/22 00:41:15;;;;;;;0.10;0.10;;;;;;;;;;5057704;28;20040;-84
2022/01/22 00:43:41;;;;;;;0.10;0.10;;;;;;;;;;5058790;28;20028;-86
2022/01/22 00:46:07;;;;;;;0.10;0.10;;;;;;;;;;5060444;28;20294;-87
2022/01/22 00:48:33;;;;;;;0.10;0.10;;;;;;;;;;5063020;28;20028;-87
2022/01/22 00:51:00;;;;;;;8.03;1.00;;;;;;;;;;5060736;28;20105;-88
2022/01/22 00:53:26;;;;;;;0.20;0.20;;;;;;;;;;5061183;28;20032;-88
2022/01/22 00:55:52;;;;;;;0.10;0.10;;;;;;;;;;5061761;28;20028;-89
2022/01/22 00:58:18;;;;;;;0.20;0.20;;;;;;;;;;5061776;28;20525;-89
2022/01/22 01:00:45;;;;;;;0.10;0.10;;;;;;;;;;5061153;28;20040;-89
2022/01/22 01:03:11;;;;;;;0.10;0.10;;;;;;;;;;5061713;28;20060;-88
2022/01/22 01:05:37;;;;;;;0.10;0.10;;;;;;;;;;5061799;28;20594;-86
2022/01/22 01:08:04;;;;;;;0.10;0.10;;;;;;;;;;5059643;28;20077;-87
2022/01/22 01:10:30;;;;;;;0.10;0.10;;;;;;;;;;5051567;28;20291;-86
2022/01/22 01:12:56;;;;;;;0.40;0.35;;;;;;;;;;5061006;28;20029;-87
2022/01/22 01:34:18;;;;;;;0.35;0.35;;;;;;;;;;5059355;28;20500;-86
2022/01/22 01:36:45;;;;;;;0.10;0.10;;;;;;;;;;5060524;28;20039;-86
2022/01/22 01:39:16;;;;;;;0.10;0.10;;;;;;;;;;5050310;28;20194;-86
2022/01/22 01:41:51;;;;;;;0.10;0.10;;;;;;;;;;5058078;28;20055;-86
2022/01/22 01:44:17;;;;;;;0.75;0.75;;;;;;;;;;5059787;28;20462;-86
2022/01/22 01:46:44;;;;;;;0.40;0.40;;;;;;;;;;5060424;28;20029;-86
2022/01/22 01:49:11;;;;;;;0.35;0.35;;;;;;;;;;5054868;28;20047;-86
2022/01/22 01:51:37;;;;;;;0.10;0.10;;;;;;;;;;5058707;28;20023;-86
2022/01/22 01:54:24;;;;;;;0.10;0.10;;;;;;;;;;5057756;28;20039;-87
2022/01/22 01:59:36;;;;;;;0.10;0.10;;;;;;;;;;5061007;28;20600;-85
2022/01/22 02:02:02;;;;;;;0.10;0.10;;;;;;;;;;5061235;28;20569;-86
2022/01/22 02:04:28;;;;;;;0.10;0.10;;;;;;;;;;5059743;28;20450;-86
2022/01/22 02:06:55;;;;;;;0.10;0.10;;;;;;;;;;5057732;28;20039;-86
2022/01/22 02:09:21;;;;;;;0.10;0.10;;;;;;;;;;5061139;28;20189;-86
2022/01/22 02:11:57;;;;;;;0.10;0.10;;;;;;;;;;5061714;28;20039;-86
2022/01/22 02:25:19;;;;;;;0.13;0.13;;;;;;;;;;5055794;28;20440;-86
2022/01/22 02:27:45;;;;;;;0.32;0.32;;;;;;;;;;5058997;28;20052;-86
2022/01/22 02:30:18;;;;;;;9.30;1.40;;;;;;;;;;5061467;28;20619;-85
2022/01/22 02:38:13;;;;;;;0.10;0.10;;;;;;;;;;5004263;28;20572;-84
2022/01/22 02:40:48;;;;;;;1.20;0.55;;;;;;;;;;5004652;28;20038;-84
2022/01/22 02:43:15;;;;;;;0.82;0.82;;;;;;;;;;5005027;28;20029;-85
2022/01/22 02:45:41;;;;;;;;;;;;;;;;;;5003073;28;20083;-84
2022/01/22 02:48:07;;;;;;;;;;;;;;;;;;5003268;28;19983;-84
2022/01/22 02:50:33;;;;;;;0.10;0.10;;;;;;;;;;5005334;28;20367;-83
2022/01/22 02:53:10;;;;;;;0.10;0.10;;;;;;;;;;5005373;28;20034;-84
2022/01/22 02:55:37;;;;;;;0.38;0.38;;;;;;;;;;5005110;28;20038;-84
2022/01/22 02:58:03;;;;;;;0.10;0.10;;;;;;;;;;5002277;28;20041;-84
2022/01/22 03:00:29;;;;;;;0.10;0.10;;;;;;;;;;5002010;28;20069;-84
2022/01/22 03:02:56;;;;;;;0.10;0.10;;;;;;;;;;5003975;28;20128;-84
2022/01/22 03:05:22;;;;;;;0.10;0.10;;;;;;;;;;5003888;28;20050;-84
2022/01/22 03:07:52;;;;;;;0.10;0.10;;;;;;;;;;5003564;28;20044;-84
2022/01/22 03:10:22;;;;;;;0.10;0.10;;;;;;;;;;5003864;28;20041;-85
2022/01/22 03:13:05;;;;;;;0.73;0.73;;;;;;;;;;5004277;28;20709;-87
2022/01/22 03:20:59;;;;;;;0.20;0.20;;;;;;;;;;5062475;28;20032;-87
2022/01/22 03:29:00;;;;;;;0.10;0.10;;;;;;;;;;5060338;28;20125;-89
2022/01/22 03:31:26;;;;;;;0.30;0.30;;;;;;;;;;5063085;28;20109;-87
2022/01/22 03:33:53;;;;;;;0.32;0.32;;;;;;;;;;5058893;28;20608;-88
2022/01/22 03:36:19;;;;;;;0.25;0.25;;;;;;;;;;5064342;28;20081;-86
2022/01/22 03:38:46;;;;;;;0.10;0.10;;;;;;;;;;5062230;28;20166;-88
2022/01/22 03:41:12;;;;;;;3.83;1.00;;;;;;;;;;5053557;28;20041;-88
2022/01/22 03:43:38;;;;;;;0.10;0.10;;;;;;;;;;5052138;28;20782;-87
2022/01/22 03:46:05;;;;;;;0.10;0.10;;;;;;;;;;5056095;28;20093;-88
2022/01/22 03:48:31;;;;;;;0.28;0.28;;;;;;;;;;5065181;28;20028;-88
2022/01/22 03:50:57;;;;;;;0.10;0.10;;;;;;;;;;5060005;28;20421;-89
2022/01/22 03:53:23;;;;;;;0.40;0.40;;;;;;;;;;5060523;28;20043;-89
2022/01/22 03:56:01;;;;;;;0.25;0.25;;;;;;;;;;5061751;28;20051;-89
2022/01/22 03:58:28;;;;;;;0.22;0.22;;;;;;;;;;5061079;28;20039;-89
2022/01/22 04:01:10;;;;;;;0.10;0.10;;;;;;;;;;5059430;28;20041;-89
2022/01/22 04:03:41;;;;;;;0.17;0.17;;;;;;;;;;5061728;28;20266;-88
2022/01/22 04:08:54;;;;;;;0.20;0.20;;;;;;;;;;5060211;28;20133;-88
2022/01/22 04:11:20;;;;;;;0.10;0.10;;;;;;;;;;5065198;28;20029;-88
2022/01/22 04:13:50;;;;;;;0.10;0.10;;;;;;;;;;5065090;28;20028;-87
2022/01/22 04:16:16;;;;;;;0.20;0.20;;;;;;;;;;5061209;28;20413;-87
2022/01/22 04:27:06;;;;;;;10.88;0.63;;;;;;;;;;5060576;28;20489;-87
2022/01/22 04:29:32;;;;;;;0.10;0.10;;;;;;;;;;5060002;28;20032;-87
2022/01/22 04:31:58;;;;;;;0.22;0.22;;;;;;;;;;5061161;28;20855;-88
2022/01/22 04:34:24;;;;;;;0.32;0.32;;;;;;;;;;5060151;28;20041;-87
2022/01/22 04:36:50;;;;;;;0.10;0.10;;;;;;;;;;5061119;28;21551;-85
2022/01/22 04:39:19;;;;;;;0.17;0.17;;;;;;;;;;5060544;28;20466;-86
2022/01/22 04:41:45;;;;;;;0.10;0.10;;;;;;;;;;5061794;28;20047;-83
2022/01/22 04:44:11;;;;;;;0.10;0.10;;;;;;;;;;5063891;28;20128;-84
2022/01/22 04:49:13;;;;;;;0.10;0.10;;;;;;;;;;5058812;28;20115;-84
2022/01/22 04:57:10;;;;;;;0.10;0.10;;;;;;;;;;5060724;28;20836;-84
2022/01/22 04:59:36;;;;;;;0.10;0.10;;;;;;;;;;5058538;28;20028;-84
2022/01/22 05:02:02;;;;;;;0.10;0.10;;;;;;;;;;5059327;28;20044;-85
2022/01/22 05:04:28;;;;;;;0.10;0.10;;;;;;;;;;5062283;28;20086;-84
2022/01/22 05:06:54;;;;;;;0.10;0.10;;;;;;;;;;5059579;28;20115;-84
2022/01/22 05:09:20;;;;;;;0.10;0.10;;;;;;;;;;5059057;28;20040;-84
2022/01/22 05:11:46;;;;;;;0.20;0.20;;;;;;;;;;5054075;28;20044;-85
2022/01/22 05:14:12;;;;;;;0.10;0.10;;;;;;;;;;5059343;28;20033;-84
2022/01/22 05:16:38;;;;;;;0.25;0.25;;;;;;;;;;5055334;28;20039;-85
2022/01/22 05:19:12;;;;;;;0.43;0.43;;;;;;;;;;5058806;28;20044;-85
2022/01/22 05:21:40;;;;;;;0.43;0.43;;;;;;;;;;5061180;28;20105;-89
2022/01/22 05:24:10;;;;;;;0.47;0.47;;;;;;;;;;5057270;28;20517;-87
2022/01/22 05:29:19;;;;;;;0.20;0.20;;;;;;;;;;5062685;28;20409;-86
2022/01/22 05:39:40;;;;;;;0.57;0.57;;;;;;;;;;5049173;28;20559;-84
2022/01/22 05:42:09;;;;;;;0.55;0.55;;;;;;;;;;5060808;28;20090;-84
2022/01/22 05:44:35;;;;;;;0.30;0.30;;;;;;;;;;5062239;28;20048;-84
2022/01/22 05:47:05;;;;;;;3.65;1.85;;;;;;;;;;5059483;28;20038;-84
2022/01/22 05:49:33;;;;;;;0.43;0.43;;;;;;;;;;5057344;28;20656;-85
2022/01/22 05:52:02;;;;;;;0.20;0.20;;;;;;;;;;5061725;28;20017;-83
2022/01/22 05:59:39;;;;;;;0.10;0.10;;;;;;;;;;5062765;28;20543;-87
2022/01/22 06:02:11;;;;;;;0.30;0.30;;;;;;;;;;5059429;28;20082;-88
2022/01/22 06:04:37;;;;;;;0.10;0.10;;;;;;;;;;5060526;28;20546;-88
2022/01/22 06:07:04;;;;;;;0.15;0.15;;;;;;;;;;5057591;28;20044;-88
2022/01/22 06:09:32;;;;;;;0.28;0.28;;;;;;;;;;5059073;28;20029;-88
2022/01/22 06:12:15;;;;;;;0.28;0.28;;;;;;;;;;5054179;28;20612;-88
2022/01/22 06:14:42;;;;;;;0.10;0.10;;;;;;;;;;5065280;28;20047;-87
2022/01/22 06:17:08;;;;;;;0.20;0.20;;;;;;;;;;5063509;28;20033;-87
2022/01/22 06:19:34;;;;;;;0.10;0.10;;;;;;;;;;5063380;28;20498;-86
2022/01/22 06:22:01;;;;;;;0.10;0.10;;;;;;;;;;5064051;28;20050;-86
2022/01/22 06:24:27;;;;;;;0.33;0.33;;;;;;;;;;5061504;28;20119;-85
2022/01/22 06:26:53;;;;;;;0.20;0.20;;;;;;;;;;5060439;28;20051;-88
2022/01/22 06:29:19;;;;;;;0.88;0.88;;;;;;;;;;5063120;28;20062;-89
2022/01/22 06:31:45;;;;;;;0.10;0.10;;;;;;;;;;5061743;28;20028;-89
2022/01/22 06:34:11;;;;;;;0.10;0.10;;;;;;;;;;5063238;28;20104;-85
2022/01/22 06:36:37;;;;;;;0.10;0.10;;;;;;;;;;5064065;28;20115;-84
2022/01/22 06:39:15;;;;;;;1.35;0.57;;;;;;;;;;5063704;28;20029;-85
2022/01/22 06:41:45;;;;;;;0.20;0.20;;;;;;;;;;5058396;28;20218;-86
2022/01/22 06:44:13;;;;;;;0.10;0.10;;;;;;;;;;5063894;28;20029;-87
2022/01/22 06:46:39;;;;;;;0.45;0.45;;;;;;;;;;5062948;28;20044;-82
2022/01/22 06:49:05;;;;;;;0.38;0.30;;;;;;;;;;5062757;28;20137;-85
2022/01/22 06:51:33;;;;;;;0.55;0.55;;;;;;;;;;5062654;28;20056;-88
2022/01/22 06:54:02;;;;;;;0.10;0.10;;;;;;;;;;5060035;28;20178;-83
2022/01/22 06:56:29;;;;;;;0.30;0.30;;;;;;;;;;5063212;28;20027;-80
2022/01/22 06:58:56;;;;;;;0.40;0.40;;;;;;;;;;5061227;28;20072;-81
2022/01/22 07:01:22;;;;;;;0.10;0.10;;;;;;;;;;5064172;28;20060;-80
2022/01/22 07:03:48;;;;;;;0.20;0.20;;;;;;;;;;5061853;28;20405;-81
2022/01/22 07:06:14;;;;;;;0.10;0.10;;;;;;;;;;5061953;28;20052;-81
2022/01/22 07:08:40;;;;;;;0.20;0.20;;;;;;;;;;5062698;28;20102;-81
2022/01/22 07:11:07;;;;;;;0.10;0.10;;;;;;;;;;5063810;28;20143;-81
2022/01/22 07:13:33;;;;;;;0.75;0.75;;;;;;;;;;5060958;28;20033;-80
2022/01/22 07:15:59;;;;;;;0.17;0.17;;;;;;;;;;5064076;28;20035;-81
2022/01/22 07:18:25;;;;;;;0.33;0.33;;;;;;;;;;5050922;28;20033;-80
2022/01/22 07:20:52;;;;;;;1.65;0.85;;;;;;;;;;5058164;28;20486;-83
2022/01/22 07:23:42;;;;;;;0.10;0.10;;;;;;;;;;5064847;28;20094;-83
2022/01/22 07:26:05;;;;;;;0.50;0.50;;;;;;;;;;5064585;28;20054;-80
2022/01/22 07:28:31;;;;;;;0.10;0.10;;;;;;;;;;5064114;28;20056;-80
2022/01/22 07:30:59;;;;;;;1.80;1.03;;;;;;;;;;5064218;28;20024;-80
2022/01/22 07:33:26;;;;;;;0.15;0.15;;;;;;;;;;5057393;28;20028;-83
2022/01/22 07:35:53;;;;;;;0.10;0.10;;;;;;;;;;5058198;28;20613;-83
2022/01/22 07:38:19;;;;;;;;;;;;;;;;;;5060663;28;20029;-83
2022/01/22 07:40:45;;;;;;;0.10;0.10;;;;;;;;;;5066681;28;19923;-80
2022/01/22 07:43:11;;;;;;;0.10;0.10;;;;;;;;;;5062676;28;20040;-80
2022/01/22 07:45:38;;;;;;;0.20;0.20;;;;;;;;;;5064895;28;20271;-84
2022/01/22 07:48:04;;;;;;;0.20;0.20;;;;;;;;;;5065253;28;20036;-84
2022/01/22 07:50:30;;;;;;;0.10;0.10;;;;;;;;;;5064651;28;20036;-84
2022/01/22 07:52:57;;;;;;;0.20;0.20;;;;;;;;;;5064440;28;20450;-83
2022/01/22 07:55:24;;;;;;;0.85;0.85;;;;;;;;;;5062219;28;20032;-84
2022/01/22 07:57:50;;;;;;;0.10;0.10;;;;;;;;;;5064263;28;20455;-85
2022/01/22 08:00:16;;;;;;;0.10;0.10;;;;;;;;;;5064540;28;20041;-84
2022/01/22 08:02:45;;;;;;;0.10;0.10;;;;;;;;;;5064622;28;20029;-84
2022/01/22 08:05:12;;;;;;;0.32;0.32;;;;;;;;;;5065077;28;20049;-84
2022/01/22 08:07:41;;;;;;;0.08;0.08;;;;;;;;;;5065579;28;20036;-84
2022/01/22 08:10:10;;;;;;;0.38;0.20;;;;;;;;;;5051016;28;20028;-84
2022/01/22 08:12:37;;;;;;;0.20;0.20;;;;;;;;;;5072701;28;20081;-84
2022/01/22 08:15:04;;;;;;;0.22;0.22;;;;;;;;;;5065666;28;20770;-83
2022/01/22 08:17:31;;;;;;;0.10;0.10;;;;;;;;;;5058901;28;20579;-83
2022/01/22 08:19:57;;;;;;;0.10;0.10;;;;;;;;;;5053632;28;20020;-83
2022/01/22 08:22:23;;;;;;;0.20;0.20;;;;;;;;;;5050164;28;20036;-83
2022/01/22 08:24:52;;;;;;;0.00;0.00;;;;;;;;;;5048903;28;20402;-84
2022/01/22 08:27:33;;;;;;;0.00;0.00;;;;;;;;;;5063870;28;20052;-84
2022/01/22 08:29:59;;;;;;;0.10;0.10;;;;;;;;;;5063174;28;20024;-84
2022/01/22 08:37:54;;;;;;;0.15;0.15;;;;;;;;;;5063906;28;20078;-84
2022/01/22 08:40:19;;;;;;;;;;;;;;;;;;5055829;28;20040;-85
2022/01/22 08:42:45;;;;;;;0.00;0.00;;;;;;;;;;5049267;28;20439;-85
2022/01/22 08:45:12;;;;;;;0.45;0.45;;;;;;;;;;5046750;28;20025;-85
2022/01/22 08:47:38;;;;;;;0.00;0.00;;;;;;;;;;5064164;28;20087;-85
2022/01/22 08:50:05;;;;;;;0.00;0.00;;;;;;;;;;5063026;28;20517;-85
2022/01/22 08:52:35;;;;;;;0.20;0.20;;;;;;;;;;5064727;28;20131;-85
2022/01/22 08:55:01;;;;;;;1.27;0.90;;;;;;;;;;5062783;28;20107;-84
2022/01/22 08:57:27;;;;;;;0.08;0.08;;;;;;;;;;5064270;28;20089;-85
2022/01/22 08:59:53;;;;;;;0.03;0.03;;;;;;;;;;5055410;28;20397;-85
2022/01/22 09:02:19;;;;;;;0.10;0.10;;;;;;;;;;5053206;28;20130;-85
2022/01/22 09:04:46;;;;;;;0.53;0.53;;;;;;;;;;5063326;28;20025;-85
2022/01/22 09:07:12;;;;;;;0.30;0.10;;;;;;;;;;5060025;28;20039;-86
2022/01/22 09:09:39;;;;;;;0.03;0.03;;;;;;;;;;5064643;28;20036;-84
2022/01/22 09:12:06;;;;;;;1.00;0.22;;;;;;;;;;5053733;28;20033;-85
2022/01/22 09:14:32;;;;;;;0.05;0.05;;;;;;;;;;5059079;28;20037;-86
2022/01/22 09:16:59;;;;;;;0.07;0.07;;;;;;;;;;5063823;28;20037;-83
2022/01/22 09:19:32;;;;;;;;;;;;;;;;;;5061631;28;20111;-90
2022/01/22 09:21:58;;;;;;;0.38;0.38;;;;;;;;;;5048743;28;20015;-86
2022/01/22 09:24:24;;;;;;;0.10;0.10;;;;;;;;;;5064939;28;20516;-88
2022/01/22 09:26:51;;;;;;;0.00;0.00;;;;;;;;;;5060579;28;20048;-80
2022/01/22 09:29:25;;;;;;;0.10;0.10;;;;;;;;;;5059601;28;20976;-81
2022/01/22 09:31:52;;;;;;;0.10;0.10;;;;;;;;;;5061458;28;20047;-86
2022/01/22 09:34:19;;;;;;;0.13;0.13;;;;;;;;;;5063875;28;20067;-87
2022/01/22 09:36:45;;;;;;;0.40;0.40;;;;;;;;;;5057097;28;20020;-89
2022/01/22 09:39:47;;;;;;;0.17;0.17;;;;;;;;;;5063878;28;20040;-83
2022/01/22 09:42:45;;;;;;;0.10;0.10;;;;;;;;;;4987322;28;20550;-84
2022/01/22 09:45:28;;;;;;;0.15;0.15;;;;;;;;;;4996942;28;20437;-85
2022/01/22 09:47:55;;;;;;;0.10;0.10;;;;;;;;;;4995459;28;20030;-84
2022/01/22 09:50:22;;;;;;;0.17;0.17;;;;;;;;;;4997730;28;20547;-84
2022/01/22 09:52:49;;;;;;;0.00;0.00;;;;;;;;;;5001749;28;20037;-84
2022/01/22 09:55:15;;;;;;;;;;;;;;;;;;5001811;28;20557;-85
2022/01/22 09:57:44;;;;;;;0.88;0.73;;;;;;;;;;4999732;28;19949;-85
2022/01/22 10:00:11;;;;;;;0.28;0.28;;;;;;;;;;4993864;28;20103;-84
2022/01/22 10:02:37;;;;;;;;;;;;;;;;;;4995043;28;20031;-85
2022/01/22 10:05:03;;;;;;;1.13;0.52;;;;;;;;;;4993443;28;19923;-85
2022/01/22 10:07:29;;;;;;;0.20;0.20;;;;;;;;;;4987398;28;20045;-86
2022/01/22 10:10:15;;;;;;;0.20;0.20;;;;;;;;;;4990585;28;20100;-82
2022/01/22 10:12:48;;;;;;;0.00;0.00;;;;;;;;;;4985857;28;20121;-82
2022/01/22 10:15:16;;;;;;;0.80;0.80;;;;;;;;;;4989256;28;20042;-85
2022/01/22 10:17:52;;;;;;;0.05;0.05;;;;;;;;;;5053380;28;20297;-85
2022/01/22 10:20:22;;;;;;;0.10;0.10;;;;;;;;;;5061284;28;20040;-85
2022/01/22 10:23:19;;;;;;;0.10;0.10;;;;;;;;;;5063250;28;20516;-85
2022/01/22 10:25:51;;;;;;;0.10;0.10;;;;;;;;;;4970265;28;20078;-85
2022/01/22 10:28:21;;;;;;;0.13;0.13;;;;;;;;;;4985093;28;20042;-85
2022/01/22 10:31:00;;;;;;;1.30;0.68;;;;;;;;;;4996309;28;20074;-81
2022/01/22 10:36:17;;;;;;;0.10;0.10;;;;;;;;;;4996506;28;20076;-85
2022/01/22 10:38:46;;;;;;;1.20;0.47;;;;;;;;;;4992901;28;20487;-85
2022/01/22 10:41:14;;;;;;;0.38;0.32;;;;;;;;;;4990890;28;20042;-85
2022/01/22 10:43:44;;;;;;;0.80;0.80;;;;;;;;;;4999382;28;20108;-86
2022/01/22 10:48:44;;;;;;;0.43;0.43;;;;;;;;;;5001003;28;20044;-85
2022/01/22 10:51:12;;;;;;;0.28;0.28;;;;;;;;;;4972815;28;20122;-85
2022/01/22 10:53:39;;;;;;;0.47;0.47;;;;;;;;;;4992423;28;20042;-85
2022/01/22 10:56:06;;;;;;;0.32;0.32;;;;;;;;;;4997228;28;20478;-85
2022/01/22 10:58:33;;;;;;;0.30;0.30;;;;;;;;;;4997729;28;20052;-84
2022/01/22 11:01:00;;;;;;;2.33;1.30;;;;;;;;;;5002075;28;20104;-85
2022/01/22 11:03:28;;;;;;;;;;;;;;;;;;5055430;28;20043;-85
2022/01/22 11:05:54;;;;;;;0.32;0.30;;;;;;;;;;5056515;28;19912;-85
2022/01/22 11:08:20;;;;;;;1.00;1.00;;;;;;;;;;5054427;28;20447;-84
2022/01/22 11:10:46;;;;;;;0.30;0.30;;;;;;;;;;5064687;28;20303;-90
2022/01/22 11:13:13;;;;;;;0.10;0.10;;;;;;;;;;5065573;28;20052;-84
2022/01/22 11:15:40;;;;;;;9.43;4.95;;;;;;;;;;5060997;28;20033;-85
2022/01/22 11:18:08;;;;;;;2.45;1.50;;;;;;;;;;5057979;28;20040;-86
2022/01/22 11:20:34;;;;;;;1.27;1.15;;;;;;;;;;5062711;28;20698;-86
2022/01/22 11:23:00;;;;;;;4.57;1.15;;;;;;;;;;5055962;28;20052;-85
2022/01/22 11:25:27;;;;;;;1.50;1.43;;;;;;;;;;5062252;28;20086;-85
2022/01/22 11:27:53;;;;;;;3.38;1.95;;;;;;;;;;5065225;28;20299;-86
2022/01/22 11:30:25;;;;;;;0.50;0.50;;;;;;;;;;5052968;28;20059;-85
2022/01/22 11:33:10;;;;;;;6.63;1.63;;;;;;;;;;5062722;28;20106;-85
2022/01/22 11:35:36;;;;;;;1.25;0.85;;;;;;;;;;5065514;28;20099;-85
2022/01/22 11:38:08;;;;;;;4.80;0.23;;;;;;;;;;5065498;28;20025;-86
2022/01/22 11:40:34;;;;;;;0.10;0.10;;;;;;;;;;5065142;28;20028;-84
2022/01/22 11:45:33;;;;;;;0.10;0.10;;;;;;;;;;5054184;28;20271;-85
2022/01/22 11:48:28;;;;;;;0.90;0.90;;;;;;;;;;5052126;28;20024;-85
2022/01/22 11:50:56;;;;;;;0.10;0.10;;;;;;;;;;5051986;28;20072;-85
2022/01/22 11:53:22;;;;;;;0.10;0.10;;;;;;;;;;5051969;28;20052;-85
2022/01/22 11:56:06;;;;;;;0.10;0.10;;;;;;;;;;5051828;28;20114;-85
2022/01/22 11:58:32;;;;;;;0.47;0.47;;;;;;;;;;5052063;28;20291;-85
2022/01/22 12:00:58;;;;;;;0.10;0.10;;;;;;;;;;5051833;28;20066;-85
2022/01/22 12:03:24;;;;;;;0.00;0.00;;;;;;;;;;5044944;28;20063;-85
2022/01/22 12:05:53;;;;;;;0.00;0.00;;;;;;;;;;5055500;28;20884;-85
2022/01/22 12:08:20;;;;;;;0.10;0.10;;;;;;;;;;5046041;28;20114;-85
2022/01/22 12:16:13;;;;;;;0.00;0.00;;;;;;;;;;5046610;28;20035;-85
2022/01/22 12:18:44;;;;;;;;;;;;;;;;;;5046750;28;20116;-84
2022/01/22 12:23:55;;;;;;;0.10;0.10;;;;;;;;;;5050974;28;20032;-85
2022/01/22 12:26:36;;;;;;;0.05;0.05;;;;;;;;;;5055032;28;20076;-85
2022/01/22 12:29:22;;;;;;;0.00;0.00;;;;;;;;;;5047699;28;20043;-84
2022/01/22 12:32:08;;;;;;;0.08;0.08;;;;;;;;;;5052176;28;20170;-84
2022/01/22 12:34:53;;;;;;;0.00;0.00;;;;;;;;;;5053058;28;20879;-84
2022/01/22 12:37:20;;;;;;;0.10;0.10;;;;;;;;;;5051493;28;20039;-84
2022/01/22 12:39:50;;;;;;;0.20;0.20;;;;;;;;;;5046364;28;20078;-85
2022/01/22 12:42:30;;;;;;;0.10;0.10;;;;;;;;;;5051231;28;20039;-84
2022/01/22 12:44:58;;;;;;;0.10;0.10;;;;;;;;;;5055124;28;20017;-84
2022/01/22 12:47:25;;;;;;;0.50;0.45;;;;;;;;;;5053430;28;20115;-84
2022/01/22 12:50:00;;;;;;;0.10;0.10;;;;;;;;;;5059464;28;20031;-84
2022/01/22 12:52:27;;;;;;;0.00;0.00;;;;;;;;;;5057833;28;20398;-85
2022/01/22 12:54:57;;;;;;;0.38;0.38;;;;;;;;;;5056647;28;20028;-84
2022/01/22 12:57:25;;;;;;;0.10;0.10;;;;;;;;;;5045500;28;20067;-84
2022/01/22 12:59:51;;;;;;;0.17;0.15;;;;;;;;;;5045388;28;20037;-85
2022/01/22 13:02:18;;;;;;;0.05;0.05;;;;;;;;;;5055351;28;20075;-88
2022/01/22 13:04:44;;;;;;;;;;;;;;;;;;5054000;28;20031;-84
2022/01/22 13:07:13;;;;;;;1.05;1.02;;;;;;;;;;5049585;28;20003;-84
2022/01/22 13:09:51;;;;;;;0.10;0.10;;;;;;;;;;5054336;28;20501;-85
2022/01/22 13:12:17;;;;;;;0.10;0.10;;;;;;;;;;5048816;28;20055;-85
2022/01/22 13:14:44;;;;;;;0.87;0.87;;;;;;;;;;5059593;28;20028;-90
2022/01/22 13:17:14;;;;;;;0.10;0.10;;;;;;;;;;5048683;28;20036;-88
2022/01/22 13:19:40;;;;;;;0.10;0.10;;;;;;;;;;5054815;28;20090;-89
2022/01/22 13:22:06;;;;;;;0.20;0.20;;;;;;;;;;5046273;28;20041;-89
2022/01/22 13:24:36;;;;;;;0.00;0.00;;;;;;;;;;5064481;28;20814;-89
2022/01/22 13:27:11;;;;;;;0.00;0.00;;;;;;;;;;5060752;28;20044;-89
2022/01/22 13:29:42;;;;;;;0.00;0.00;;;;;;;;;;5054322;28;20497;-89
2022/01/22 13:32:12;;;;;;;1.33;0.47;;;;;;;;;;5062318;28;20039;-89
2022/01/22 13:38:28;;;;;;;0.10;0.10;;;;;;;;;;5059807;28;20037;-89
2022/01/22 13:40:32;;;;;;;;;;;;;;;;;;5037270;28;20037;-89
2022/01/22 13:48:27;;;;;;;0.05;0.05;;;;;;;;;;5060652;28;20055;-89
2022/01/22 13:50:53;;;;;;;0.10;0.10;;;;;;;;;;5063483;28;20099;-89
2022/01/22 13:53:19;;;;;;;3.67;0.20;;;;;;;;;;5059121;28;20576;-89
2022/01/22 13:56:05;;;;;;;0.10;0.10;;;;;;;;;;5051275;28;20024;-88
2022/01/22 13:58:31;;;;;;;0.00;0.00;;;;;;;;;;5049285;28;20282;-89
2022/01/22 14:01:04;;;;;;;1.45;0.28;;;;;;;;;;5063139;28;20028;-88
2022/01/22 14:03:37;;;;;;;0.10;0.10;;;;;;;;;;5048472;28;20044;-89
2022/01/22 14:06:03;;;;;;;0.10;0.10;;;;;;;;;;5051478;28;20524;-89
2022/01/22 14:08:33;;;;;;;0.00;0.00;;;;;;;;;;5057017;28;20146;-89
2022/01/22 14:11:12;;;;;;;0.20;0.20;;;;;;;;;;5061741;28;20024;-89
2022/01/22 14:13:39;;;;;;;0.20;0.20;;;;;;;;;;5049661;28;20040;-89
2022/01/22 14:16:05;;;;;;;;;;;;;;;;;;5063056;28;20039;-89
2022/01/22 14:18:39;;;;;;;0.10;0.10;;;;;;;;;;5049521;28;19904;-89
2022/01/22 14:21:16;;;;;;;0.05;0.05;;;;;;;;;;5073671;28;20314;-89
2022/01/22 14:23:42;;;;;;;0.08;0.08;;;;;;;;;;5051263;28;20032;-89
2022/01/22 14:26:10;;;;;;;0.05;0.05;;;;;;;;;;5068857;28;20044;-90
2022/01/22 14:28:38;;;;;;;1.02;0.40;;;;;;;;;;5062742;28;20029;-89
2022/01/22 14:31:20;;;;;;;0.45;0.20;;;;;;;;;;5062552;28;20117;-88
2022/01/22 14:33:47;;;;;;;0.00;0.00;;;;;;;;;;5061814;28;20028;-89
2022/01/22 14:36:17;;;;;;;0.10;0.10;;;;;;;;;;5061081;28;20021;-89
2022/01/22 14:47:05;;;;;;;0.63;0.63;;;;;;;;;;5004488;28;20645;-89
2022/01/22 14:49:41;;;;;;;0.00;0.00;;;;;;;;;;4981269;28;20042;-89
2022/01/22 14:52:09;;;;;;;0.00;0.00;;;;;;;;;;5004262;28;20052;-89
2022/01/22 14:54:36;;;;;;;0.10;0.10;;;;;;;;;;5004423;28;20510;-89
2022/01/22 14:57:03;;;;;;;0.00;0.00;;;;;;;;;;5003941;28;20030;-89
2022/01/22 14:59:29;;;;;;;;;;;;;;;;;;5004453;28;20036;-89
2022/01/22 15:01:55;;;;;;;0.10;0.10;;;;;;;;;;5004286;28;19921;-88
2022/01/22 15:04:22;;;;;;;0.22;0.22;;;;;;;;;;5003986;28;20642;-89
2022/01/22 15:06:49;;;;;;;0.10;0.10;;;;;;;;;;5004144;28;20096;-89
2022/01/22 15:09:15;;;;;;;0.00;0.00;;;;;;;;;;5003875;28;20034;-89
2022/01/22 15:11:41;;;;;;;0.00;0.00;;;;;;;;;;5003828;28;20055;-89
2022/01/22 15:14:08;;;;;;;0.00;0.00;;;;;;;;;;5003838;28;20588;-89
2022/01/22 15:16:39;;;;;;;0.10;0.10;;;;;;;;;;5003436;28;20033;-89
2022/01/22 15:19:12;;;;;;;0.00;0.00;;;;;;;;;;5003141;28;20036;-89
2022/01/22 15:21:38;;;;;;;0.00;0.00;;;;;;;;;;5065896;28;20048;-89
2022/01/22 15:24:05;;;;;;;0.00;0.00;;;;;;;;;;5065476;28;20031;-89
2022/01/22 15:26:31;;;;;;;0.25;0.20;;;;;;;;;;5065360;28;20075;-89
2022/01/22 15:28:57;;;;;;;0.10;0.10;;;;;;;;;;5064657;28;20406;-89
2022/01/22 15:31:35;;;;;;;0.03;0.03;;;;;;;;;;5050685;28;20037;-89
2022/01/22 15:36:55;;;;;;;0.25;0.22;;;;;;;;;;5000769;28;20895;-89
2022/01/22 15:39:22;;;;;;;2.25;0.38;;;;;;;;;;4971664;28;20074;-88
2022/01/22 15:41:48;;;;;;;0.10;0.10;;;;;;;;;;4987994;28;20053;-89
2022/01/22 15:44:15;;;;;;;0.10;0.10;;;;;;;;;;5000907;28;20269;-89
2022/01/22 15:46:43;;;;;;;0.90;0.75;;;;;;;;;;4993495;28;20038;-88
2022/01/22 15:49:14;;;;;;;0.08;0.08;;;;;;;;;;5004730;28;20030;-89
2022/01/22 15:51:41;;;;;;;0.98;0.60;;;;;;;;;;5004280;28;20041;-89
2022/01/22 15:54:07;;;;;;;;;;;;;;;;;;5006192;28;20042;-88
2022/01/22 15:56:34;;;;;;;0.90;0.47;;;;;;;;;;5005654;28;19909;-89
2022/01/22 15:59:00;;;;;;;0.10;0.10;;;;;;;;;;5002232;28;20359;-89
2022/01/22 16:01:26;;;;;;;0.00;0.00;;;;;;;;;;4990768;28;20076;-89
2022/01/22 16:03:56;;;;;;;0.77;0.70;;;;;;;;;;4970614;28;20022;-88
2022/01/22 16:06:33;;;;;;;0.00;0.00;;;;;;;;;;5004679;28;20034;-88
2022/01/22 16:08:59;;;;;;;0.00;0.00;;;;;;;;;;4994638;28;20209;-89
2022/01/22 16:11:25;;;;;;;0.38;0.30;;;;;;;;;;4991980;28;20106;-88
2022/01/22 16:13:51;;;;;;;0.10;0.10;;;;;;;;;;5025995;28;20029;-89
2022/01/22 16:16:17;;;;;;;0.85;0.85;;;;;;;;;;5049527;28;20107;-89
2022/01/22 16:18:43;;;;;;;0.00;0.00;;;;;;;;;;5064720;28;20103;-89
2022/01/22 16:21:09;;;;;;;0.00;0.00;;;;;;;;;;5066724;28;20509;-91
2022/01/22 16:23:35;;;;;;;0.23;0.23;;;;;;;;;;5061739;28;20094;-90
2022/01/22 16:26:01;;;;;;;0.30;0.30;;;;;;;;;;5077494;28;20588;-88
2022/01/22 16:28:28;;;;;;;0.10;0.10;;;;;;;;;;5061666;28;20862;-90
2022/01/22 16:30:55;;;;;;;1.73;0.25;;;;;;;;;;5060924;28;20075;-89
2022/01/22 16:33:21;;;;;;;0.00;0.00;;;;;;;;;;5061926;28;20029;-83
2022/01/22 16:35:51;;;;;;;0.10;0.10;;;;;;;;;;5059897;28;20040;-84
2022/01/22 16:38:18;;;;;;;0.20;0.20;;;;;;;;;;5060474;28;20035;-84
2022/01/22 16:40:44;;;;;;;0.00;0.00;;;;;;;;;;5062787;28;20036;-86
2022/01/22 16:43:10;;;;;;;1.45;0.82;;;;;;;;;;5062200;28;20039;-86
2022/01/22 16:56:26;;;;;;;0.45;0.32;;;;;;;;;;5063183;28;20052;-86
2022/01/22 16:58:55;;;;;;;0.10;0.10;;;;;;;;;;5047154;28;20036;-87
2022/01/22 17:01:36;;;;;;;0.00;0.00;;;;;;;;;;5053686;28;20049;-85
2022/01/22 17:04:03;;;;;;;0.90;0.82;;;;;;;;;;5045389;28;20059;-88
2022/01/22 17:06:31;;;;;;;0.00;0.00;;;;;;;;;;5048638;28;20039;-88
2022/01/22 17:09:18;;;;;;;0.00;0.00;;;;;;;;;;5047521;28;20043;-87
2022/01/22 17:14:28;;;;;;;0.85;0.85;;;;;;;;;;5053510;28;20141;-84
2022/01/22 17:16:55;;;;;;;0.75;0.75;;;;;;;;;;5053551;28;20032;-90